createdAt,value
2017-08-08T00:00:05.994Z,72.0
2017-08-08T00:01:07.419Z,72.1
2017-08-08T00:02:08.795Z,72.1
2017-08-08T00:03:10.195Z,72.3
2017-08-08T00:04:11.573Z,72.2
2017-08-08T00:05:12.976Z,72.1
2017-08-08T00:06:14.355Z,72.2
2017-08-08T00:07:15.755Z,71.9
2017-08-08T00:08:17.135Z,72.2
2017-08-08T00:09:18.550Z,71.9
2017-08-08T00:10:19.924Z,71.7
2017-08-08T00:11:21.804Z,71.9
2017-08-08T00:12:23.178Z,72.5
2017-08-08T00:13:24.602Z,72.1
2017-08-08T00:14:26.019Z,72.5
2017-08-08T00:15:27.493Z,72.6
2017-08-08T00:16:28.864Z,72.0
2017-08-08T00:17:30.649Z,72.5
2017-08-08T00:18:32.036Z,72.7
2017-08-08T00:19:33.459Z,72.8
2017-08-08T00:20:34.840Z,72.5
2017-08-08T00:21:36.240Z,72.4
2017-08-08T00:22:37.997Z,72.5
2017-08-08T00:23:39.430Z,72.6
2017-08-08T00:24:40.805Z,72.8
2017-08-08T00:25:42.206Z,72.9
2017-08-08T00:26:43.965Z,72.7
2017-08-08T00:27:45.395Z,72.6
2017-08-08T00:28:46.782Z,72.7
2017-08-08T00:29:48.183Z,72.9
2017-08-08T00:30:49.558Z,72.6
2017-08-08T00:31:50.968Z,72.4
2017-08-08T00:32:52.333Z,72.7
2017-08-08T00:33:53.733Z,72.7
2017-08-08T00:34:55.115Z,73.3
2017-08-08T00:35:56.889Z,73.6
2017-08-08T00:36:58.268Z,73.3
2017-08-08T00:38:00.080Z,73.6
2017-08-08T00:39:01.460Z,73.3
2017-08-08T00:40:02.890Z,73.6
2017-08-08T00:41:04.272Z,73.7
2017-08-08T00:42:05.672Z,73.8
2017-08-08T00:43:07.050Z,73.6
2017-08-08T00:44:08.452Z,73.5
2017-08-08T00:45:10.206Z,73.7
2017-08-08T00:46:11.642Z,73.6
2017-08-08T00:47:13.021Z,74.1
2017-08-08T00:48:14.798Z,73.6
2017-08-08T00:49:16.178Z,73.7
2017-08-08T00:50:17.609Z,73.7
2017-08-08T00:51:18.989Z,73.8
2017-08-08T00:52:20.387Z,74.0
2017-08-08T00:53:21.765Z,74.2
2017-08-08T00:54:23.169Z,74.1
2017-08-08T00:55:24.550Z,74.0
2017-08-08T00:56:25.949Z,74.0
2017-08-08T00:57:27.330Z,73.8
2017-08-08T00:58:28.736Z,74.1
2017-08-08T00:59:30.109Z,74.0
2017-08-08T01:00:31.888Z,74.0
2017-08-08T01:01:33.268Z,74.3
2017-08-08T01:02:34.725Z,74.4
2017-08-08T01:03:36.106Z,74.5
2017-08-08T01:04:37.578Z,74.7
2017-08-08T01:05:38.955Z,74.7
2017-08-08T01:06:40.362Z,74.5
2017-08-08T01:07:41.740Z,74.3
2017-08-08T01:08:43.142Z,74.8
2017-08-08T01:09:44.517Z,75.2
2017-08-08T01:10:45.922Z,74.7
2017-08-08T01:11:47.295Z,75.1
2017-08-08T01:12:48.698Z,75.5
2017-08-08T01:13:50.073Z,74.7
2017-08-08T01:14:51.478Z,75.7
2017-08-08T01:15:52.864Z,76.0
2017-08-08T01:16:54.256Z,75.5
2017-08-08T01:17:55.635Z,76.1
2017-08-08T01:18:57.035Z,75.6
2017-08-08T01:19:58.413Z,75.6
2017-08-08T01:20:59.819Z,76.4
2017-08-08T01:22:01.202Z,76.3
2017-08-08T01:23:02.596Z,76.4
2017-08-08T01:24:04.357Z,76.3
2017-08-08T01:25:05.784Z,76.1
2017-08-08T01:26:07.542Z,76.3
2017-08-08T01:27:08.973Z,76.5
2017-08-08T01:28:10.725Z,77.1
2017-08-08T01:29:12.164Z,77.1
2017-08-08T01:30:13.561Z,77.0
2017-08-08T01:31:14.943Z,77.0
2017-08-08T01:32:16.333Z,76.9
2017-08-08T01:33:18.747Z,77.0
2017-08-08T01:34:20.502Z,77.0
2017-08-08T01:35:21.937Z,77.6
2017-08-08T01:36:23.310Z,77.6
2017-08-08T01:37:24.715Z,77.5
2017-08-08T01:38:26.101Z,77.4
2017-08-08T01:39:27.495Z,77.8
2017-08-08T01:40:29.270Z,78.3
2017-08-08T01:41:30.684Z,78.3
2017-08-08T01:42:32.067Z,77.9
2017-08-08T01:43:33.464Z,78.4
2017-08-08T01:44:35.225Z,78.1
2017-08-08T01:45:36.653Z,78.6
2017-08-08T01:46:38.041Z,78.6
2017-08-08T01:47:39.431Z,79.0
2017-08-08T01:48:40.812Z,78.5
2017-08-08T01:49:42.217Z,78.8
2017-08-08T01:50:43.590Z,78.6
2017-08-08T01:51:44.994Z,78.6
2017-08-08T01:52:46.375Z,78.9
2017-08-08T01:53:47.773Z,78.9
2017-08-08T01:54:49.151Z,79.3
2017-08-08T01:55:50.553Z,79.5
2017-08-08T01:56:51.932Z,78.9
2017-08-08T01:57:53.336Z,79.3
2017-08-08T01:58:54.711Z,79.4
2017-08-08T01:59:56.119Z,79.5
2017-08-08T02:00:57.498Z,79.7
2017-08-08T02:01:58.893Z,79.5
2017-08-08T02:03:00.266Z,79.2
2017-08-08T02:04:01.667Z,79.6
2017-08-08T02:05:03.046Z,79.7
2017-08-08T02:06:04.827Z,79.7
2017-08-08T02:07:06.582Z,80.3
2017-08-08T02:08:08.049Z,80.3
2017-08-08T02:09:09.427Z,80.8
2017-08-08T02:10:10.824Z,80.7
2017-08-08T02:11:12.152Z,80.5
2017-08-08T02:12:13.610Z,80.8
2017-08-08T02:13:14.988Z,80.9
2017-08-08T02:14:16.413Z,81.1
2017-08-08T02:15:17.794Z,81.1
2017-08-08T02:16:19.272Z,80.8
2017-08-08T02:17:20.648Z,81.3
2017-08-08T02:18:22.050Z,81.4
2017-08-08T02:19:23.431Z,82.4
2017-08-08T02:20:24.832Z,82.1
2017-08-08T02:21:26.209Z,82.1
2017-08-08T02:22:27.608Z,82.2
2017-08-08T02:23:28.990Z,81.7
2017-08-08T02:24:30.391Z,80.9
2017-08-08T02:25:31.771Z,80.9
2017-08-08T02:26:33.171Z,80.8
2017-08-08T02:27:34.547Z,81.1
2017-08-08T02:28:35.948Z,81.5
2017-08-08T02:29:37.329Z,82.1
2017-08-08T02:30:38.728Z,82.8
2017-08-08T02:31:40.106Z,82.8
2017-08-08T02:32:41.512Z,84.3
2017-08-08T02:33:42.886Z,83.9
2017-08-08T02:34:44.295Z,84.4
2017-08-08T02:35:45.669Z,85.7
2017-08-08T02:36:47.086Z,85.9
2017-08-08T02:37:48.441Z,86.4
2017-08-08T02:38:49.848Z,87.4
2017-08-08T02:39:51.232Z,86.1
2017-08-08T02:40:52.628Z,86.3
2017-08-08T02:41:54.010Z,86.5
2017-08-08T02:42:55.408Z,87.0
2017-08-08T02:43:56.787Z,87.4
2017-08-08T02:44:58.188Z,86.4
2017-08-08T02:45:59.560Z,86.6
2017-08-08T02:47:00.962Z,86.0
2017-08-08T02:48:02.343Z,85.8
2017-08-08T02:49:03.743Z,86.7
2017-08-08T02:50:05.508Z,86.9
2017-08-08T02:51:06.933Z,87.3
2017-08-08T02:52:08.314Z,86.3
2017-08-08T02:53:09.711Z,86.5
2017-08-08T02:54:11.091Z,86.8
2017-08-08T02:55:12.882Z,86.6
2017-08-08T02:56:14.258Z,87.3
2017-08-08T02:57:15.685Z,86.7
2017-08-08T02:58:17.059Z,87.0
2017-08-08T02:59:18.463Z,87.4
2017-08-08T03:00:19.839Z,86.6
2017-08-08T03:01:21.632Z,86.9
2017-08-08T03:02:23.001Z,87.4
2017-08-08T03:03:24.430Z,87.3
2017-08-08T03:04:25.808Z,87.8
2017-08-08T03:05:27.204Z,87.5
2017-08-08T03:06:28.587Z,87.7
2017-08-08T03:07:29.992Z,88.0
2017-08-08T03:08:31.371Z,88.2
2017-08-08T03:09:32.773Z,88.1
2017-08-08T03:10:34.147Z,88.5
2017-08-08T03:11:35.552Z,88.2
2017-08-08T03:12:36.956Z,87.8
2017-08-08T03:13:38.482Z,88.1
2017-08-08T03:14:39.853Z,88.0
2017-08-08T03:15:41.328Z,88.0
2017-08-08T03:16:42.692Z,87.8
2017-08-08T03:17:44.096Z,87.6
2017-08-08T03:18:45.470Z,87.6
2017-08-08T03:19:46.878Z,87.7
2017-08-08T03:20:48.252Z,87.0
2017-08-08T03:21:49.652Z,87.5
2017-08-08T03:22:51.032Z,87.7
2017-08-08T03:23:52.432Z,89.3
2017-08-08T03:24:53.811Z,89.4
2017-08-08T03:25:55.214Z,88.1
2017-08-08T03:26:56.592Z,87.9
2017-08-08T03:27:57.997Z,88.2
2017-08-08T03:28:59.371Z,88.6
2017-08-08T03:30:00.778Z,87.9
2017-08-08T03:31:02.159Z,87.8
2017-08-08T03:32:03.554Z,87.5
2017-08-08T03:33:04.921Z,88.0
2017-08-08T03:34:06.330Z,88.3
2017-08-08T03:35:07.727Z,87.9
2017-08-08T03:36:09.110Z,87.4
2017-08-08T03:37:10.486Z,87.6
2017-08-08T03:38:11.890Z,88.2
2017-08-08T03:39:13.268Z,89.2
2017-08-08T03:40:14.674Z,89.7
2017-08-08T03:41:16.042Z,89.7
2017-08-08T03:42:17.451Z,89.6
2017-08-08T03:43:18.827Z,89.1
2017-08-08T03:44:20.229Z,90.3
2017-08-08T03:45:21.604Z,90.0
2017-08-08T03:46:23.009Z,90.5
2017-08-08T03:47:24.389Z,90.2
2017-08-08T03:48:25.790Z,89.5
2017-08-08T03:49:27.168Z,90.3
2017-08-08T03:50:28.568Z,89.9
2017-08-08T03:51:29.945Z,89.5
2017-08-08T03:52:31.354Z,89.7
2017-08-08T03:53:32.731Z,89.5
2017-08-08T03:54:34.126Z,90.2
2017-08-08T03:55:35.510Z,90.2
2017-08-08T03:56:36.905Z,90.3
2017-08-08T03:57:38.285Z,90.3
2017-08-08T03:58:39.687Z,90.4
2017-08-08T03:59:41.063Z,90.5
2017-08-08T04:00:42.473Z,90.4
2017-08-08T04:01:43.851Z,92.4
2017-08-08T04:02:45.246Z,92.2
2017-08-08T04:03:46.630Z,92.4
2017-08-08T04:04:48.027Z,92.5
2017-08-08T04:05:49.402Z,93.1
2017-08-08T04:06:50.809Z,92.5
2017-08-08T04:07:52.188Z,93.2
2017-08-08T04:08:53.585Z,93.3
2017-08-08T04:09:54.979Z,94.0
2017-08-08T04:10:56.367Z,93.1
2017-08-08T04:11:57.744Z,93.8
2017-08-08T04:12:59.145Z,93.8
2017-08-08T04:14:00.524Z,94.6
2017-08-08T04:15:01.924Z,94.9
2017-08-08T04:16:03.304Z,95.0
2017-08-08T04:17:04.704Z,94.9
2017-08-08T04:18:06.088Z,94.1
2017-08-08T04:19:07.486Z,93.8
2017-08-08T04:20:08.861Z,93.6
2017-08-08T04:21:10.284Z,94.4
2017-08-08T04:22:11.664Z,94.7
2017-08-08T04:23:13.147Z,93.6
2017-08-08T04:24:14.541Z,93.6
2017-08-08T04:25:16.023Z,94.0
2017-08-08T04:26:17.693Z,93.5
2017-08-08T04:27:19.241Z,94.4
2017-08-08T04:28:20.629Z,94.9
2017-08-08T04:29:22.093Z,94.5
2017-08-08T04:30:23.485Z,94.8
2017-08-08T04:31:24.879Z,94.4
2017-08-08T04:32:26.265Z,94.3
2017-08-08T04:33:27.663Z,95.2
2017-08-08T04:34:29.043Z,94.9
2017-08-08T04:35:30.447Z,94.7
2017-08-08T04:36:31.819Z,94.8
2017-08-08T04:37:33.224Z,94.4
2017-08-08T04:38:34.603Z,94.4
2017-08-08T04:39:36.004Z,93.9
2017-08-08T04:40:37.383Z,93.9
2017-08-08T04:41:38.781Z,94.3
2017-08-08T04:42:40.158Z,94.2
2017-08-08T04:43:41.561Z,94.6
2017-08-08T04:44:42.942Z,94.0
2017-08-08T04:45:44.340Z,94.2
2017-08-08T04:46:45.737Z,93.9
2017-08-08T04:47:47.231Z,93.8
2017-08-08T04:48:48.604Z,94.0
2017-08-08T04:49:49.997Z,93.8
2017-08-08T04:50:51.380Z,93.0
2017-08-08T04:51:52.779Z,93.4
2017-08-08T04:52:54.162Z,93.3
2017-08-08T04:53:55.660Z,92.9
2017-08-08T04:54:57.039Z,93.1
2017-08-08T04:55:58.440Z,93.2
2017-08-08T04:56:59.822Z,93.1
2017-08-08T04:58:01.218Z,93.8
2017-08-08T04:59:02.614Z,93.1
2017-08-08T05:00:04.101Z,93.4
2017-08-08T05:01:05.490Z,93.5
2017-08-08T05:02:06.881Z,93.3
2017-08-08T05:03:08.263Z,93.9
2017-08-08T05:04:09.672Z,93.5
2017-08-08T05:05:11.043Z,94.1
2017-08-08T05:06:12.446Z,93.1
2017-08-08T05:07:13.842Z,93.3
2017-08-08T05:08:15.324Z,93.2
2017-08-08T05:09:16.703Z,92.3
2017-08-08T05:10:18.133Z,92.2
2017-08-08T05:11:19.539Z,91.6
2017-08-08T05:12:20.990Z,91.5
2017-08-08T05:13:22.377Z,91.5
2017-08-08T05:14:23.869Z,91.5
2017-08-08T05:15:25.638Z,90.6
2017-08-08T05:16:27.056Z,90.0
2017-08-08T05:17:28.435Z,90.5
2017-08-08T05:18:29.840Z,89.9
2017-08-08T05:19:31.223Z,90.0
2017-08-08T05:20:32.620Z,89.4
2017-08-08T05:21:34.004Z,90.2
2017-08-08T05:22:35.500Z,89.4
2017-08-08T05:23:36.881Z,88.9
2017-08-08T05:24:38.278Z,87.8
2017-08-08T05:25:39.662Z,88.8
2017-08-08T05:26:41.057Z,87.3
2017-08-08T05:27:42.461Z,87.7
2017-08-08T05:28:43.941Z,87.4
2017-08-08T05:29:45.330Z,87.7
2017-08-08T05:30:46.848Z,87.3
2017-08-08T05:31:48.235Z,86.5
2017-08-08T05:32:49.726Z,87.9
2017-08-08T05:33:51.107Z,87.8
2017-08-08T05:34:52.584Z,87.7
2017-08-08T05:35:53.970Z,87.7
2017-08-08T05:36:55.468Z,87.6
2017-08-08T05:37:56.884Z,87.1
2017-08-08T05:38:58.349Z,87.9
2017-08-08T05:39:59.735Z,87.5
2017-08-08T05:41:01.245Z,87.6
2017-08-08T05:42:02.632Z,85.7
2017-08-08T05:43:04.114Z,83.3
2017-08-08T05:44:05.510Z,83.9
2017-08-08T05:45:06.892Z,84.6
2017-08-08T05:46:08.280Z,83.9
2017-08-08T05:47:09.673Z,83.3
2017-08-08T05:48:11.060Z,82.3
2017-08-08T05:49:12.560Z,83.3
2017-08-08T05:50:13.946Z,82.9
2017-08-08T05:51:15.449Z,82.4
2017-08-08T05:52:16.830Z,80.1
2017-08-08T05:53:18.323Z,79.8
2017-08-08T05:54:19.710Z,80.4
2017-08-08T05:55:21.191Z,78.5
2017-08-08T05:56:22.588Z,77.2
2017-08-08T05:57:23.977Z,76.2
2017-08-08T05:58:25.370Z,75.5
2017-08-08T05:59:26.760Z,75.9
2017-08-08T06:00:28.147Z,76.5
2017-08-08T06:01:29.544Z,76.0
2017-08-08T06:02:30.946Z,76.7
2017-08-08T06:03:32.357Z,74.8
2017-08-08T06:04:33.749Z,73.8
2017-08-08T06:05:35.135Z,73.5
2017-08-08T06:06:36.532Z,73.0
2017-08-08T06:07:37.938Z,73.0
2017-08-08T06:08:39.365Z,72.4
2017-08-08T06:09:40.765Z,72.7
2017-08-08T06:10:42.149Z,72.4
2017-08-08T06:11:43.539Z,73.6
2017-08-08T06:12:44.928Z,74.2
2017-08-08T06:13:46.315Z,72.4
2017-08-08T06:14:47.705Z,71.7
2017-08-08T06:15:49.098Z,72.2
2017-08-08T06:16:50.500Z,71.6
2017-08-08T06:17:51.893Z,70.9
2017-08-08T06:18:53.282Z,70.4
2017-08-08T06:19:54.683Z,71.2
2017-08-08T06:20:56.088Z,71.4
2017-08-08T06:21:57.480Z,69.8
2017-08-08T06:22:58.867Z,68.9
2017-08-08T06:24:00.260Z,69.8
2017-08-08T06:25:01.651Z,69.3
2017-08-08T06:26:03.038Z,68.6
2017-08-08T06:27:04.461Z,68.5
2017-08-08T06:28:05.850Z,68.5
2017-08-08T06:29:07.257Z,67.7
2017-08-08T06:30:08.645Z,68.3
2017-08-08T06:31:10.027Z,69.1
2017-08-08T06:32:11.468Z,69.3
2017-08-08T06:33:12.856Z,67.6
2017-08-08T06:34:14.257Z,67.2
2017-08-08T06:35:15.637Z,67.4
2017-08-08T06:36:17.039Z,67.6
2017-08-08T06:37:18.429Z,66.9
2017-08-08T06:38:19.829Z,67.6
2017-08-08T06:39:21.232Z,67.4
2017-08-08T06:40:22.630Z,67.6
2017-08-08T06:41:24.023Z,66.6
2017-08-08T06:42:25.427Z,66.8
2017-08-08T06:43:26.816Z,65.9
2017-08-08T06:44:28.243Z,65.9
2017-08-08T06:45:29.609Z,66.9
2017-08-08T06:46:31.033Z,66.0
2017-08-08T06:47:32.426Z,65.4
2017-08-08T06:48:33.843Z,65.6
2017-08-08T06:49:35.244Z,63.7
2017-08-08T06:50:36.616Z,65.0
2017-08-08T06:51:38.069Z,66.0
2017-08-08T06:52:39.466Z,65.2
2017-08-08T06:53:41.402Z,65.4
2017-08-08T06:54:42.837Z,64.8
2017-08-08T06:55:44.217Z,65.1
2017-08-08T06:56:45.629Z,64.4
2017-08-08T06:57:47.065Z,64.2
2017-08-08T06:58:48.462Z,64.7
2017-08-08T06:59:49.869Z,65.4
2017-08-08T07:00:51.268Z,65.2
2017-08-08T07:01:52.661Z,65.4
2017-08-08T07:02:54.133Z,65.5
2017-08-08T07:03:55.531Z,65.4
2017-08-08T07:04:56.930Z,65.5
2017-08-08T07:05:58.698Z,65.8
2017-08-08T07:07:00.088Z,65.3
2017-08-08T07:08:01.471Z,66.3
2017-08-08T07:09:02.873Z,66.8
2017-08-08T07:10:04.260Z,66.2
2017-08-08T07:11:05.677Z,66.0
2017-08-08T07:12:07.064Z,67.0
2017-08-08T07:13:08.461Z,66.4
2017-08-08T07:14:09.848Z,66.6
2017-08-08T07:15:11.648Z,67.0
2017-08-08T07:16:13.041Z,66.9
2017-08-08T07:17:14.432Z,67.3
2017-08-08T07:18:15.843Z,67.5
2017-08-08T07:19:17.224Z,68.0
2017-08-08T07:20:18.632Z,68.4
2017-08-08T07:21:20.016Z,67.4
2017-08-08T07:22:21.455Z,66.9
2017-08-08T07:23:22.849Z,67.3
2017-08-08T07:24:24.271Z,66.9
2017-08-08T07:25:25.656Z,67.8
2017-08-08T07:26:27.177Z,67.4
2017-08-08T07:27:29.570Z,67.1
2017-08-08T07:28:30.964Z,67.6
2017-08-08T07:29:32.353Z,68.1
2017-08-08T07:30:33.742Z,68.5
2017-08-08T07:31:35.140Z,68.6
2017-08-08T07:32:36.526Z,67.8
2017-08-08T07:33:37.925Z,68.3
2017-08-08T07:34:39.298Z,68.3
2017-08-08T07:35:40.745Z,68.4
2017-08-08T07:36:42.139Z,67.8
2017-08-08T07:37:43.525Z,68.5
2017-08-08T07:38:44.909Z,68.5
2017-08-08T07:39:46.302Z,68.4
2017-08-08T07:40:47.696Z,68.3
2017-08-08T07:41:49.120Z,67.4
2017-08-08T07:42:50.563Z,67.5
2017-08-08T07:43:52.032Z,67.2
2017-08-08T07:44:53.920Z,68.1
2017-08-08T07:45:55.311Z,67.8
2017-08-08T07:46:56.714Z,67.6
2017-08-08T07:47:58.106Z,67.5
2017-08-08T07:48:59.513Z,67.7
2017-08-08T07:50:00.910Z,68.2
2017-08-08T07:51:02.300Z,67.9
2017-08-08T07:52:03.704Z,66.9
2017-08-08T07:53:05.100Z,67.7
2017-08-08T07:54:06.501Z,65.9
2017-08-08T07:55:07.912Z,65.9
2017-08-08T07:56:09.404Z,65.2
2017-08-08T07:57:10.816Z,65.2
2017-08-08T07:58:12.323Z,64.0
2017-08-08T07:59:13.717Z,65.1
2017-08-08T08:00:15.127Z,65.5
2017-08-08T08:01:16.513Z,66.2
2017-08-08T08:02:17.925Z,67.2
2017-08-08T08:03:19.331Z,65.7
2017-08-08T08:04:20.712Z,65.1
2017-08-08T08:05:22.098Z,64.9
2017-08-08T08:06:23.493Z,63.8
2017-08-08T08:07:24.885Z,65.3
2017-08-08T08:08:26.288Z,63.5
2017-08-08T08:09:27.675Z,64.6
2017-08-08T08:10:29.081Z,64.8
2017-08-08T08:11:30.478Z,64.7
2017-08-08T08:12:31.881Z,65.4
2017-08-08T08:13:33.269Z,65.1
2017-08-08T08:14:34.666Z,64.3
2017-08-08T08:15:36.062Z,64.5
2017-08-08T08:16:37.458Z,64.1
2017-08-08T08:17:38.847Z,63.3
2017-08-08T08:18:40.248Z,62.9
2017-08-08T08:19:41.642Z,62.9
2017-08-08T08:20:43.036Z,62.4
2017-08-08T08:21:44.428Z,62.4
2017-08-08T08:22:45.825Z,62.6
2017-08-08T08:23:47.212Z,62.7
2017-08-08T08:24:48.668Z,64.1
2017-08-08T08:25:50.061Z,63.9
2017-08-08T08:26:51.468Z,63.4
2017-08-08T08:27:52.849Z,62.7
2017-08-08T08:28:54.283Z,61.8
2017-08-08T08:29:55.724Z,60.5
2017-08-08T08:30:57.156Z,60.6
2017-08-08T08:31:58.545Z,62.1
2017-08-08T08:32:59.960Z,60.9
2017-08-08T08:34:01.348Z,61.0
2017-08-08T08:35:02.774Z,62.2
2017-08-08T08:36:04.172Z,61.7
2017-08-08T08:37:05.609Z,62.0
2017-08-08T08:38:06.997Z,61.2
2017-08-08T08:39:08.426Z,61.7
2017-08-08T08:40:09.867Z,61.9
2017-08-08T08:41:11.255Z,61.7
2017-08-08T08:42:12.641Z,60.4
2017-08-08T08:43:14.042Z,60.8
2017-08-08T08:44:15.432Z,60.6
2017-08-08T08:45:16.842Z,61.0
2017-08-08T08:46:18.214Z,60.2
2017-08-08T08:47:19.625Z,59.9
2017-08-08T08:48:21.021Z,60.5
2017-08-08T08:49:22.417Z,59.0
2017-08-08T08:50:23.806Z,59.1
2017-08-08T08:51:25.254Z,60.9
2017-08-08T08:52:26.642Z,60.5
2017-08-08T08:53:28.038Z,59.2
2017-08-08T08:54:29.432Z,61.2
2017-08-08T08:55:30.831Z,61.5
2017-08-08T08:56:32.256Z,60.6
2017-08-08T08:57:33.654Z,61.4
2017-08-08T08:58:35.043Z,60.0
2017-08-08T08:59:36.443Z,59.7
2017-08-08T09:00:37.830Z,59.7
2017-08-08T09:01:39.223Z,59.6
2017-08-08T09:02:40.613Z,59.7
2017-08-08T09:03:42.019Z,60.7
2017-08-08T09:04:43.398Z,61.1
2017-08-08T09:05:44.803Z,61.8
2017-08-08T09:06:46.207Z,61.9
2017-08-08T09:07:47.604Z,61.0
2017-08-08T09:08:49.017Z,60.1
2017-08-08T09:09:50.412Z,60.5
2017-08-08T09:10:51.826Z,60.6
2017-08-08T09:11:53.236Z,60.8
2017-08-08T09:12:54.626Z,61.4
2017-08-08T09:13:56.020Z,60.8
2017-08-08T09:14:57.404Z,59.9
2017-08-08T09:15:58.818Z,59.4
2017-08-08T09:17:00.204Z,59.9
2017-08-08T09:18:01.605Z,60.7
2017-08-08T09:19:02.995Z,58.8
2017-08-08T09:20:04.390Z,59.2
2017-08-08T09:21:05.781Z,60.8
2017-08-08T09:22:07.215Z,60.6
2017-08-08T09:23:08.612Z,60.2
2017-08-08T09:24:10.400Z,61.7
2017-08-08T09:25:11.795Z,58.9
2017-08-08T09:26:13.194Z,59.5
2017-08-08T09:27:14.586Z,59.6
2017-08-08T09:28:15.982Z,57.9
2017-08-08T09:29:17.370Z,57.8
2017-08-08T09:30:18.764Z,58.8
2017-08-08T09:31:20.153Z,58.1
2017-08-08T09:32:21.588Z,57.9
2017-08-08T09:33:23.008Z,56.9
2017-08-08T09:34:24.396Z,54.3
2017-08-08T09:35:25.821Z,55.1
2017-08-08T09:36:27.214Z,54.9
2017-08-08T09:37:28.606Z,55.1
2017-08-08T09:38:31.054Z,54.2
2017-08-08T09:39:32.441Z,54.7
2017-08-08T09:40:33.851Z,55.0
2017-08-08T09:41:35.239Z,54.7
2017-08-08T09:42:36.640Z,55.1
2017-08-08T09:43:38.038Z,54.5
2017-08-08T09:44:39.437Z,55.1
2017-08-08T09:45:40.848Z,55.7
2017-08-08T09:46:42.250Z,55.1
2017-08-08T09:47:43.638Z,55.9
2017-08-08T09:48:45.033Z,55.8
2017-08-08T09:49:46.439Z,55.8
2017-08-08T09:50:47.832Z,55.4
2017-08-08T09:51:49.230Z,56.8
2017-08-08T09:52:50.653Z,57.1
2017-08-08T09:53:52.029Z,57.5
2017-08-08T09:54:53.445Z,57.3
2017-08-08T09:55:54.817Z,56.5
2017-08-08T09:56:56.230Z,56.7
2017-08-08T09:57:57.618Z,57.0
2017-08-08T09:58:59.012Z,56.7
2017-08-08T10:00:00.403Z,56.7
2017-08-08T10:01:01.802Z,56.5
2017-08-08T10:02:03.265Z,57.5
2017-08-08T10:03:04.711Z,57.9
2017-08-08T10:04:06.105Z,57.7
2017-08-08T10:05:07.500Z,57.2
2017-08-08T10:06:08.911Z,57.9
2017-08-08T10:07:10.363Z,56.8
2017-08-08T10:08:11.761Z,57.5
2017-08-08T10:09:13.150Z,56.9
2017-08-08T10:10:14.542Z,56.3
2017-08-08T10:11:15.934Z,56.9
2017-08-08T10:12:17.343Z,56.5
2017-08-08T10:13:18.764Z,55.7
2017-08-08T10:14:20.161Z,56.0
2017-08-08T10:15:21.684Z,56.0
2017-08-08T10:16:23.045Z,55.5
2017-08-08T10:17:24.472Z,55.1
2017-08-08T10:18:25.853Z,56.0
2017-08-08T10:19:27.246Z,55.3
2017-08-08T10:20:28.660Z,54.3
2017-08-08T10:21:30.070Z,55.1
2017-08-08T10:22:31.474Z,55.9
2017-08-08T10:23:32.865Z,54.4
2017-08-08T10:24:34.252Z,54.4
2017-08-08T10:25:35.810Z,55.3
2017-08-08T10:26:37.228Z,55.0
2017-08-08T10:27:38.637Z,55.8
2017-08-08T10:28:40.035Z,55.9
2017-08-08T10:29:41.433Z,55.8
2017-08-08T10:30:42.827Z,56.0
2017-08-08T10:31:44.216Z,56.0
2017-08-08T10:32:45.655Z,55.8
2017-08-08T10:33:47.102Z,55.0
2017-08-08T10:34:48.487Z,54.4
2017-08-08T10:35:49.890Z,55.4
2017-08-08T10:36:51.297Z,55.4
2017-08-08T10:37:52.744Z,55.9
2017-08-08T10:38:54.170Z,56.4
2017-08-08T10:39:55.569Z,56.6
2017-08-08T10:40:56.984Z,55.0
2017-08-08T10:41:58.352Z,56.3
2017-08-08T10:42:59.736Z,56.2
2017-08-08T10:44:01.147Z,56.5
2017-08-08T10:45:02.535Z,56.6
2017-08-08T10:46:03.928Z,56.9
2017-08-08T10:47:05.316Z,57.2
2017-08-08T10:48:06.708Z,58.0
2017-08-08T10:49:08.120Z,57.9
2017-08-08T10:50:09.510Z,59.0
2017-08-08T10:51:10.918Z,59.4
2017-08-08T10:52:12.326Z,61.1
2017-08-08T10:53:13.758Z,61.7
2017-08-08T10:54:15.148Z,62.4
2017-08-08T10:55:16.566Z,62.4
2017-08-08T10:56:17.962Z,63.4
2017-08-08T10:57:19.353Z,64.2
2017-08-08T10:58:20.757Z,64.0
2017-08-08T10:59:22.150Z,63.9
2017-08-08T11:00:23.544Z,64.1
2017-08-08T11:01:24.929Z,65.2
2017-08-08T11:02:26.363Z,64.9
2017-08-08T11:03:27.760Z,65.9
2017-08-08T11:04:29.152Z,67.0
2017-08-08T11:05:30.534Z,66.9
2017-08-08T11:06:32.012Z,67.3
2017-08-08T11:07:33.370Z,67.7
2017-08-08T11:08:34.779Z,67.9
2017-08-08T11:09:36.174Z,68.4
2017-08-08T11:10:37.596Z,68.5
2017-08-08T11:11:39.007Z,69.4
2017-08-08T11:12:40.434Z,70.1
2017-08-08T11:13:41.809Z,69.9
2017-08-08T11:14:43.212Z,70.3
2017-08-08T11:15:44.644Z,70.7
2017-08-08T11:16:46.033Z,70.1
2017-08-08T11:17:47.423Z,69.9
2017-08-08T11:18:48.834Z,69.8
2017-08-08T11:19:50.220Z,71.0
2017-08-08T11:20:51.646Z,70.6
2017-08-08T11:21:53.017Z,71.1
2017-08-08T11:22:54.445Z,71.1
2017-08-08T11:23:55.855Z,70.4
2017-08-08T11:24:57.260Z,70.4
2017-08-08T11:25:58.689Z,71.6
2017-08-08T11:27:00.111Z,71.9
2017-08-08T11:28:01.508Z,70.8
2017-08-08T11:29:02.965Z,70.9
2017-08-08T11:30:04.371Z,71.1
2017-08-08T11:31:05.764Z,70.9
2017-08-08T11:32:07.161Z,70.6
2017-08-08T11:33:08.551Z,71.0
2017-08-08T11:34:09.944Z,70.4
2017-08-08T11:35:11.375Z,70.8
2017-08-08T11:36:12.759Z,72.6
2017-08-08T11:37:14.338Z,70.4
2017-08-08T11:38:15.733Z,70.1
2017-08-08T11:39:17.439Z,70.9
2017-08-08T11:40:18.838Z,70.9
2017-08-08T11:41:20.310Z,70.6
2017-08-08T11:42:21.722Z,69.6
2017-08-08T11:43:23.160Z,70.5
2017-08-08T11:44:24.550Z,70.1
2017-08-08T11:45:26.084Z,70.4
2017-08-08T11:46:27.502Z,69.8
2017-08-08T11:47:28.926Z,70.8
2017-08-08T11:48:30.316Z,71.3
2017-08-08T11:49:31.819Z,70.2
2017-08-08T11:50:33.202Z,70.8
2017-08-08T11:51:34.706Z,70.6
2017-08-08T11:52:36.109Z,70.1
2017-08-08T11:53:37.563Z,70.9
2017-08-08T11:54:39.253Z,71.2
2017-08-08T11:55:40.761Z,72.7
2017-08-08T11:56:42.212Z,72.6
2017-08-08T11:57:43.945Z,71.6
2017-08-08T11:58:45.357Z,71.2
2017-08-08T11:59:46.844Z,69.5
2017-08-08T12:00:48.244Z,70.0
2017-08-08T12:01:49.737Z,70.1
2017-08-08T12:02:51.131Z,71.6
2017-08-08T12:03:52.597Z,72.3
2017-08-08T12:04:54.012Z,71.3
2017-08-08T12:05:55.541Z,72.1
2017-08-08T12:06:56.962Z,71.1
2017-08-08T12:07:58.672Z,71.6
2017-08-08T12:09:00.063Z,72.6
2017-08-08T12:10:02.009Z,71.4
2017-08-08T12:11:03.391Z,70.1
2017-08-08T12:12:05.067Z,71.0
2017-08-08T12:13:06.472Z,71.5
2017-08-08T12:14:07.961Z,72.1
2017-08-08T12:15:09.442Z,70.9
2017-08-08T12:16:11.110Z,70.8
2017-08-08T12:17:12.524Z,71.7
2017-08-08T12:18:14.044Z,71.7
2017-08-08T12:19:15.459Z,71.6
2017-08-08T12:20:17.349Z,71.8
2017-08-08T12:21:18.727Z,72.5
2017-08-08T12:22:20.398Z,73.0
2017-08-08T12:23:21.795Z,72.9
2017-08-08T12:24:23.260Z,73.4
2017-08-08T12:25:24.649Z,73.5
2017-08-08T12:26:26.171Z,74.1
2017-08-08T12:27:27.542Z,74.5
2017-08-08T12:28:29.025Z,74.5
2017-08-08T12:29:30.410Z,76.0
2017-08-08T12:30:31.949Z,75.8
2017-08-08T12:31:33.363Z,75.8
2017-08-08T12:32:35.114Z,75.3
2017-08-08T12:33:36.499Z,75.7
2017-08-08T12:34:37.992Z,76.2
2017-08-08T12:35:39.394Z,77.6
2017-08-08T12:36:40.860Z,77.9
2017-08-08T12:37:42.262Z,77.9
2017-08-08T12:38:43.747Z,78.0
2017-08-08T12:39:45.252Z,78.5
2017-08-08T12:40:47.046Z,79.8
2017-08-08T12:41:48.638Z,80.3
2017-08-08T12:42:50.119Z,80.9
2017-08-08T12:43:51.520Z,79.1
2017-08-08T12:44:53.028Z,79.5
2017-08-08T12:45:54.826Z,79.4
2017-08-08T12:46:56.508Z,80.3
2017-08-08T12:47:57.924Z,81.6
2017-08-08T12:48:59.703Z,81.1
2017-08-08T12:50:01.170Z,80.4
2017-08-08T12:51:02.985Z,79.2
2017-08-08T12:52:04.495Z,79.3
2017-08-08T12:53:06.180Z,79.6
2017-08-08T12:54:07.686Z,80.4
2017-08-08T12:55:09.362Z,80.5
2017-08-08T12:56:10.898Z,80.2
2017-08-08T12:57:12.543Z,82.0
2017-08-08T12:58:14.007Z,80.1
2017-08-08T12:59:15.896Z,80.4
2017-08-08T13:00:17.410Z,80.8
2017-08-08T13:01:19.299Z,82.3
2017-08-08T13:02:20.747Z,81.8
2017-08-08T13:03:22.383Z,81.3
2017-08-08T13:04:23.857Z,81.6
2017-08-08T13:05:25.635Z,81.5
2017-08-08T13:06:27.142Z,82.6
2017-08-08T13:07:28.828Z,82.1
2017-08-08T13:08:30.298Z,83.3
2017-08-08T13:09:32.008Z,83.0
2017-08-08T13:10:33.460Z,83.3
2017-08-08T13:11:35.175Z,84.2
2017-08-08T13:12:36.669Z,83.4
2017-08-08T13:13:38.385Z,82.3
2017-08-08T13:14:39.803Z,82.3
2017-08-08T13:15:41.531Z,81.4
2017-08-08T13:16:43.811Z,80.8
2017-08-08T13:17:45.582Z,79.8
2017-08-08T13:18:47.000Z,79.6
2017-08-08T13:19:48.823Z,80.1
2017-08-08T13:20:50.313Z,80.5
2017-08-08T13:21:52.064Z,80.5
2017-08-08T13:22:53.632Z,79.2
2017-08-08T13:23:55.178Z,78.5
2017-08-08T13:24:56.641Z,78.6
2017-08-08T13:25:58.400Z,77.6
2017-08-08T13:26:59.881Z,77.0
2017-08-08T13:28:01.641Z,76.9
2017-08-08T13:29:03.068Z,76.8
2017-08-08T13:30:04.784Z,76.8
2017-08-08T13:31:06.270Z,77.7
2017-08-08T13:32:07.981Z,77.7
2017-08-08T13:33:09.456Z,78.1
2017-08-08T13:34:11.186Z,78.8
2017-08-08T13:35:12.690Z,78.4
2017-08-08T13:36:14.359Z,78.9
2017-08-08T13:37:15.873Z,79.4